JST573 YBBN-YMML
Flight info
| Callsign | JST573 |
|---|---|
| Flight time | 2h 5m |
| Altitude | 38000 |
| Route | BN H91 SANEG Q35 DORSU H119 ML |
| Aircraft | A20N/M-SDE2E3FGHIRWXY/LB1 |
Departure
| Time | 2026-05-07 11:02 |
|---|---|
| Airport | Brisbane International Airport (YBBN) |
Arrival
| Time | 2026-05-07 13:07 |
|---|---|
| Airport | Melbourne Airport (YMML) |
| Time | Latitude | Longitude | Altitude | Speed | Heading |
|---|---|---|---|---|---|
| 2026-05-07 10:37 | -27.38652 | 153.12037 | 17 ft | 0 kts | 315° |
| 2026-05-07 10:54 | -27.38654 | 153.12039 | 18 ft | 1 kts | 315° |
| 2026-05-07 10:55 | -27.38658 | 153.12044 | 19 ft | 1 kts | 315° |
| 2026-05-07 10:55 | -27.38663 | 153.12049 | 19 ft | 1 kts | 315° |
| 2026-05-07 10:55 | -27.38670 | 153.12057 | 18 ft | 2 kts | 314° |
| 2026-05-07 10:55 | -27.38681 | 153.12069 | 19 ft | 2 kts | 314° |
| 2026-05-07 10:56 | -27.38692 | 153.12081 | 18 ft | 2 kts | 327° |
| 2026-05-07 10:56 | -27.38706 | 153.12089 | 20 ft | 2 kts | 341° |
| 2026-05-07 10:56 | -27.38721 | 153.12094 | 19 ft | 2 kts | 356° |
| 2026-05-07 10:56 | -27.38734 | 153.12087 | 20 ft | 0 kts | 76° |
| 2026-05-07 10:57 | -27.38730 | 153.12096 | 19 ft | 3 kts | 65° |
| 2026-05-07 10:57 | -27.38730 | 153.12097 | 19 ft | 0 kts | 64° |
| 2026-05-07 10:57 | -27.38729 | 153.12099 | 19 ft | 1 kts | 66° |
| 2026-05-07 10:58 | -27.38728 | 153.12124 | 20 ft | 5 kts | 96° |
| 2026-05-07 10:58 | -27.38750 | 153.12169 | 18 ft | 9 kts | 123° |
| 2026-05-07 10:58 | -27.38788 | 153.12240 | 18 ft | 13 kts | 115° |
| 2026-05-07 10:58 | -27.38760 | 153.12323 | 19 ft | 13 kts | 18° |
| 2026-05-07 10:59 | -27.38668 | 153.12371 | 18 ft | 16 kts | 27° |
| 2026-05-07 10:59 | -27.38558 | 153.12438 | 18 ft | 20 kts | 28° |
| 2026-05-07 10:59 | -27.38427 | 153.12514 | 18 ft | 23 kts | 27° |
| 2026-05-07 10:59 | -27.38293 | 153.12590 | 18 ft | 18 kts | 26° |
| 2026-05-07 11:00 | -27.38172 | 153.12656 | 19 ft | 21 kts | 27° |
| 2026-05-07 11:00 | -27.38038 | 153.12736 | 18 ft | 19 kts | 27° |
| 2026-05-07 11:00 | -27.38000 | 153.12830 | 18 ft | 15 kts | 110° |
| 2026-05-07 11:00 | -27.38054 | 153.12943 | 19 ft | 18 kts | 118° |
| 2026-05-07 11:01 | -27.38088 | 153.13013 | 21 ft | 9 kts | 118° |
| 2026-05-07 11:01 | -27.38138 | 153.13048 | 21 ft | 10 kts | 188° |
| 2026-05-07 11:01 | -27.38204 | 153.13010 | 22 ft | 12 kts | 207° |
| 2026-05-07 11:01 | -27.38467 | 153.12853 | 22 ft | 85 kts | 208° |
| 2026-05-07 11:02 | -27.39216 | 153.12427 | 23 ft | 153 kts | 208° |
| 2026-05-07 11:02 | -27.40159 | 153.11868 | 768 ft | 151 kts | 211° |
| 2026-05-07 11:02 | -27.41087 | 153.11331 | 1612 ft | 149 kts | 211° |
| 2026-05-07 11:02 | -27.42015 | 153.10809 | 2354 ft | 154 kts | 210° |
| 2026-05-07 11:03 | -27.43031 | 153.10234 | 2899 ft | 175 kts | 209° |
| 2026-05-07 11:03 | -27.44289 | 153.09963 | 3453 ft | 198 kts | 176° |
| 2026-05-07 11:03 | -27.45571 | 153.10634 | 4242 ft | 216 kts | 141° |
| 2026-05-07 11:03 | -27.46519 | 153.12028 | 4869 ft | 236 kts | 135° |
| 2026-05-07 11:04 | -27.47726 | 153.13341 | 5494 ft | 245 kts | 144° |
| 2026-05-07 11:04 | -27.49147 | 153.14377 | 6340 ft | 242 kts | 165° |
| 2026-05-07 11:04 | -27.50782 | 153.14684 | 7149 ft | 238 kts | 189° |
| 2026-05-07 11:04 | -27.52404 | 153.14308 | 7954 ft | 244 kts | 199° |
| 2026-05-07 11:05 | -27.54134 | 153.13831 | 8441 ft | 268 kts | 198° |
| 2026-05-07 11:05 | -27.55990 | 153.13308 | 9172 ft | 278 kts | 202° |
| 2026-05-07 11:05 | -27.57831 | 153.12584 | 10141 ft | 281 kts | 204° |
| 2026-05-07 11:05 | -27.59729 | 153.11834 | 10763 ft | 300 kts | 203° |
| 2026-05-07 11:06 | -27.61777 | 153.11034 | 11150 ft | 323 kts | 202° |
| 2026-05-07 11:06 | -27.63969 | 153.10253 | 11838 ft | 334 kts | 200° |
| 2026-05-07 11:06 | -27.66213 | 153.09527 | 12721 ft | 338 kts | 199° |
| 2026-05-07 11:06 | -27.68495 | 153.08797 | 13486 ft | 343 kts | 200° |
| 2026-05-07 11:07 | -27.70801 | 153.08049 | 14217 ft | 347 kts | 200° |
| 2026-05-07 11:07 | -27.73125 | 153.07285 | 14937 ft | 350 kts | 200° |
| 2026-05-07 11:07 | -27.75469 | 153.06508 | 15650 ft | 353 kts | 201° |
| 2026-05-07 11:07 | -27.77836 | 153.05720 | 16347 ft | 356 kts | 201° |
| 2026-05-07 11:08 | -27.80202 | 153.04863 | 17043 ft | 357 kts | 206° |
| 2026-05-07 11:08 | -27.82451 | 153.03697 | 17742 ft | 356 kts | 213° |
| 2026-05-07 11:08 | -27.84547 | 153.02215 | 18421 ft | 356 kts | 220° |
| 2026-05-07 11:08 | -27.86573 | 153.00578 | 19005 ft | 360 kts | 220° |
| 2026-05-07 11:09 | -27.88624 | 152.98940 | 19591 ft | 363 kts | 220° |
| 2026-05-07 11:09 | -27.90700 | 152.97287 | 20171 ft | 366 kts | 221° |
| 2026-05-07 11:09 | -27.92792 | 152.95622 | 20751 ft | 370 kts | 221° |
| 2026-05-07 11:09 | -27.94901 | 152.93941 | 21333 ft | 372 kts | 222° |
| 2026-05-07 11:10 | -27.97031 | 152.92242 | 21889 ft | 376 kts | 222° |
| 2026-05-07 11:10 | -27.99174 | 152.90529 | 22450 ft | 379 kts | 223° |
| 2026-05-07 11:10 | -28.01336 | 152.88800 | 22989 ft | 382 kts | 223° |
| 2026-05-07 11:10 | -28.03516 | 152.87056 | 23547 ft | 386 kts | 223° |
| 2026-05-07 11:11 | -28.05689 | 152.85316 | 24019 ft | 389 kts | 224° |
| 2026-05-07 11:11 | -28.07903 | 152.83545 | 24504 ft | 391 kts | 224° |
| 2026-05-07 11:11 | -28.10122 | 152.81764 | 25060 ft | 391 kts | 224° |
| 2026-05-07 11:11 | -28.12340 | 152.79984 | 25571 ft | 392 kts | 224° |
| 2026-05-07 11:12 | -28.14574 | 152.78190 | 25956 ft | 396 kts | 224° |
| 2026-05-07 11:12 | -28.16827 | 152.76379 | 26395 ft | 397 kts | 224° |
| 2026-05-07 11:12 | -28.19086 | 152.74562 | 26843 ft | 399 kts | 225° |
| 2026-05-07 11:12 | -28.21356 | 152.72736 | 27215 ft | 401 kts | 225° |
| 2026-05-07 11:13 | -28.23643 | 152.70902 | 27572 ft | 404 kts | 225° |
| 2026-05-07 11:13 | -28.25945 | 152.69054 | 27981 ft | 406 kts | 225° |
| 2026-05-07 11:13 | -28.28253 | 152.67190 | 28363 ft | 408 kts | 226° |
| 2026-05-07 11:13 | -28.30566 | 152.65312 | 28761 ft | 410 kts | 226° |
| 2026-05-07 11:14 | -28.32897 | 152.63431 | 29213 ft | 412 kts | 226° |
| 2026-05-07 11:14 | -28.35233 | 152.61557 | 29651 ft | 412 kts | 226° |
| 2026-05-07 11:14 | -28.37580 | 152.59664 | 29964 ft | 414 kts | 226° |
| 2026-05-07 11:14 | -28.39933 | 152.57764 | 30314 ft | 416 kts | 227° |
| 2026-05-07 11:15 | -28.42295 | 152.55855 | 30612 ft | 418 kts | 227° |
| 2026-05-07 11:15 | -28.44667 | 152.53933 | 30871 ft | 420 kts | 227° |
| 2026-05-07 11:15 | -28.47045 | 152.52009 | 31227 ft | 420 kts | 227° |
| 2026-05-07 11:15 | -28.49432 | 152.50075 | 31468 ft | 423 kts | 227° |
| 2026-05-07 11:16 | -28.51831 | 152.48132 | 31861 ft | 422 kts | 227° |
| 2026-05-07 11:16 | -28.54218 | 152.46201 | 32317 ft | 420 kts | 227° |
| 2026-05-07 11:16 | -28.56589 | 152.44283 | 32805 ft | 417 kts | 227° |
| 2026-05-07 11:16 | -28.58944 | 152.42376 | 33205 ft | 415 kts | 227° |
| 2026-05-07 11:17 | -28.61293 | 152.40469 | 33608 ft | 413 kts | 227° |
| 2026-05-07 11:17 | -28.63628 | 152.38572 | 33960 ft | 412 kts | 228° |
| 2026-05-07 11:17 | -28.65959 | 152.36675 | 34258 ft | 412 kts | 228° |
| 2026-05-07 11:17 | -28.68286 | 152.34783 | 34590 ft | 409 kts | 228° |
| 2026-05-07 11:18 | -28.70598 | 152.32902 | 34873 ft | 408 kts | 228° |
| 2026-05-07 11:18 | -28.72904 | 152.31025 | 35154 ft | 407 kts | 229° |
| 2026-05-07 11:18 | -28.75201 | 152.29153 | 35433 ft | 406 kts | 229° |
| 2026-05-07 11:18 | -28.77494 | 152.27278 | 35712 ft | 406 kts | 229° |
| 2026-05-07 11:19 | -28.79799 | 152.25417 | 35902 ft | 406 kts | 229° |
| 2026-05-07 11:19 | -28.82089 | 152.23548 | 36186 ft | 404 kts | 229° |
| 2026-05-07 11:19 | -28.84363 | 152.21685 | 36459 ft | 402 kts | 229° |
| 2026-05-07 11:19 | -28.86630 | 152.19825 | 36667 ft | 401 kts | 229° |
| 2026-05-07 11:20 | -28.88896 | 152.17967 | 36909 ft | 400 kts | 229° |
| 2026-05-07 11:20 | -28.91152 | 152.16120 | 37165 ft | 399 kts | 230° |
| 2026-05-07 11:20 | -28.93406 | 152.14275 | 37376 ft | 398 kts | 230° |
| 2026-05-07 11:20 | -28.95622 | 152.12459 | 37560 ft | 398 kts | 230° |
| 2026-05-07 11:21 | -28.97866 | 152.10620 | 37764 ft | 396 kts | 230° |
| 2026-05-07 11:21 | -29.00107 | 152.08784 | 37998 ft | 396 kts | 230° |
| 2026-05-07 11:21 | -29.02337 | 152.06955 | 38171 ft | 395 kts | 230° |
| 2026-05-07 11:21 | -29.04572 | 152.05121 | 38189 ft | 394 kts | 230° |
| 2026-05-07 11:22 | -29.09046 | 152.01447 | 38191 ft | 393 kts | 230° |
| 2026-05-07 11:22 | -29.13461 | 151.97814 | 38189 ft | 394 kts | 230° |
| 2026-05-07 11:23 | -29.17907 | 151.94156 | 38190 ft | 393 kts | 230° |
| 2026-05-07 11:23 | -29.22355 | 151.90482 | 38206 ft | 395 kts | 230° |
| 2026-05-07 11:24 | -29.26843 | 151.86775 | 38202 ft | 399 kts | 230° |
| 2026-05-07 11:24 | -29.31335 | 151.83077 | 38197 ft | 397 kts | 230° |
| 2026-05-07 11:25 | -29.35818 | 151.79377 | 38210 ft | 398 kts | 230° |
| 2026-05-07 11:25 | -29.40309 | 151.75655 | 38212 ft | 398 kts | 230° |
| 2026-05-07 11:26 | -29.44795 | 151.71937 | 38216 ft | 398 kts | 230° |
| 2026-05-07 11:26 | -29.49273 | 151.68226 | 38218 ft | 397 kts | 230° |
| 2026-05-07 11:27 | -29.53963 | 151.64753 | 38206 ft | 407 kts | 224° |
| 2026-05-07 11:27 | -29.58894 | 151.61570 | 38219 ft | 406 kts | 224° |
| 2026-05-07 11:28 | -29.63847 | 151.58348 | 38264 ft | 411 kts | 223° |
| 2026-05-07 11:28 | -29.68808 | 151.55129 | 38227 ft | 409 kts | 223° |
| 2026-05-07 11:29 | -29.73759 | 151.51910 | 38232 ft | 409 kts | 223° |
| 2026-05-07 11:29 | -29.78712 | 151.48684 | 38241 ft | 409 kts | 223° |
| 2026-05-07 11:30 | -29.83669 | 151.45452 | 38248 ft | 410 kts | 223° |
| 2026-05-07 11:30 | -29.88635 | 151.42211 | 38244 ft | 409 kts | 223° |
| 2026-05-07 11:31 | -29.92741 | 151.39531 | 38242 ft | 408 kts | 223° |
| 2026-05-07 11:31 | -29.97679 | 151.36299 | 38247 ft | 409 kts | 223° |
| 2026-05-07 11:32 | -30.05093 | 151.31440 | 38253 ft | 409 kts | 223° |
| 2026-05-07 11:33 | -30.10848 | 151.27667 | 38257 ft | 409 kts | 223° |
| 2026-05-07 11:33 | -30.14991 | 151.24948 | 38261 ft | 409 kts | 223° |
| 2026-05-07 11:34 | -30.20732 | 151.21172 | 38257 ft | 408 kts | 223° |
| 2026-05-07 11:34 | -30.24870 | 151.18447 | 38254 ft | 408 kts | 223° |
| 2026-05-07 11:35 | -30.29802 | 151.15197 | 38269 ft | 408 kts | 223° |
| 2026-05-07 11:35 | -30.34700 | 151.11966 | 38270 ft | 407 kts | 223° |
| 2026-05-07 11:36 | -30.39619 | 151.08717 | 38266 ft | 407 kts | 223° |
| 2026-05-07 11:36 | -30.44537 | 151.05464 | 38271 ft | 407 kts | 223° |
| 2026-05-07 11:37 | -30.49439 | 151.02216 | 38259 ft | 406 kts | 223° |
| 2026-05-07 11:37 | -30.54340 | 150.98966 | 38265 ft | 405 kts | 223° |
| 2026-05-07 11:38 | -30.59239 | 150.95726 | 38266 ft | 406 kts | 223° |
| 2026-05-07 11:38 | -30.64122 | 150.92477 | 38268 ft | 403 kts | 223° |
| 2026-05-07 11:39 | -30.68973 | 150.89243 | 38268 ft | 405 kts | 223° |
| 2026-05-07 11:39 | -30.73858 | 150.85990 | 38274 ft | 404 kts | 223° |
| 2026-05-07 11:40 | -30.78710 | 150.82759 | 38244 ft | 400 kts | 223° |
| 2026-05-07 11:40 | -30.83565 | 150.79511 | 38263 ft | 405 kts | 223° |
| 2026-05-07 11:41 | -30.88450 | 150.76247 | 38268 ft | 405 kts | 223° |
| 2026-05-07 11:41 | -30.93335 | 150.72980 | 38289 ft | 405 kts | 222° |
| 2026-05-07 11:42 | -30.98222 | 150.69706 | 38245 ft | 405 kts | 222° |
| 2026-05-07 11:42 | -31.03106 | 150.66431 | 38245 ft | 405 kts | 222° |
| 2026-05-07 11:43 | -31.07702 | 150.62815 | 38251 ft | 392 kts | 230° |
| 2026-05-07 11:43 | -31.11778 | 150.58670 | 38251 ft | 388 kts | 233° |
| 2026-05-07 11:44 | -31.15816 | 150.54470 | 38263 ft | 390 kts | 232° |
| 2026-05-07 11:44 | -31.19861 | 150.50264 | 38269 ft | 389 kts | 233° |
| 2026-05-07 11:45 | -31.23904 | 150.46051 | 38255 ft | 389 kts | 233° |
| 2026-05-07 11:45 | -31.27938 | 150.41840 | 38266 ft | 389 kts | 233° |
| 2026-05-07 11:46 | -31.31969 | 150.37628 | 38263 ft | 389 kts | 233° |
| 2026-05-07 11:46 | -31.36004 | 150.33403 | 38249 ft | 388 kts | 232° |
| 2026-05-07 11:47 | -31.40017 | 150.29200 | 38259 ft | 387 kts | 232° |
| 2026-05-07 11:47 | -31.44007 | 150.25013 | 38267 ft | 388 kts | 232° |
| 2026-05-07 11:48 | -31.48026 | 150.20791 | 38256 ft | 388 kts | 232° |
| 2026-05-07 11:48 | -31.52042 | 150.16569 | 38283 ft | 388 kts | 232° |
| 2026-05-07 11:49 | -31.56058 | 150.12338 | 38263 ft | 388 kts | 232° |
| 2026-05-07 11:49 | -31.60075 | 150.08110 | 38266 ft | 388 kts | 231° |
| 2026-05-07 11:50 | -31.64094 | 150.03874 | 38273 ft | 389 kts | 232° |
| 2026-05-07 11:50 | -31.68108 | 149.99627 | 38270 ft | 389 kts | 232° |
| 2026-05-07 11:51 | -31.72129 | 149.95367 | 38255 ft | 390 kts | 231° |
| 2026-05-07 11:51 | -31.76176 | 149.91091 | 38282 ft | 393 kts | 231° |
| 2026-05-07 11:52 | -31.80233 | 149.86781 | 38282 ft | 393 kts | 231° |
| 2026-05-07 11:52 | -31.84284 | 149.82453 | 38291 ft | 392 kts | 233° |
| 2026-05-07 11:53 | -31.88071 | 149.77897 | 38290 ft | 389 kts | 234° |
| 2026-05-07 11:53 | -31.91800 | 149.73399 | 38290 ft | 392 kts | 234° |
| 2026-05-07 11:54 | -31.95616 | 149.68794 | 38289 ft | 392 kts | 234° |
| 2026-05-07 11:54 | -31.99415 | 149.64200 | 38290 ft | 391 kts | 234° |
| 2026-05-07 11:55 | -32.03211 | 149.59597 | 38275 ft | 392 kts | 234° |
| 2026-05-07 11:55 | -32.07015 | 149.54977 | 38299 ft | 393 kts | 234° |
| 2026-05-07 11:56 | -32.10823 | 149.50351 | 38294 ft | 393 kts | 234° |
| 2026-05-07 11:56 | -32.14627 | 149.45723 | 38302 ft | 393 kts | 234° |
| 2026-05-07 11:57 | -32.18426 | 149.41095 | 38301 ft | 393 kts | 234° |
| 2026-05-07 11:57 | -32.22225 | 149.36460 | 38304 ft | 393 kts | 234° |
| 2026-05-07 11:58 | -32.26024 | 149.31817 | 38305 ft | 394 kts | 233° |
| 2026-05-07 11:58 | -32.29830 | 149.27162 | 38323 ft | 394 kts | 233° |
| 2026-05-07 11:59 | -32.33613 | 149.22530 | 38307 ft | 394 kts | 233° |
| 2026-05-07 11:59 | -32.37414 | 149.17870 | 38309 ft | 394 kts | 233° |
| 2026-05-07 12:00 | -32.41213 | 149.13204 | 38323 ft | 394 kts | 233° |
| 2026-05-07 12:00 | -32.45011 | 149.08534 | 38314 ft | 394 kts | 233° |
| 2026-05-07 12:01 | -32.48811 | 149.03857 | 38304 ft | 394 kts | 233° |
| 2026-05-07 12:01 | -32.52610 | 148.99173 | 38298 ft | 394 kts | 233° |
| 2026-05-07 12:02 | -32.56408 | 148.94484 | 38301 ft | 394 kts | 233° |
| 2026-05-07 12:02 | -32.60205 | 148.89791 | 38321 ft | 395 kts | 233° |
| 2026-05-07 12:03 | -32.64013 | 148.85077 | 38301 ft | 396 kts | 233° |
| 2026-05-07 12:03 | -32.67820 | 148.80362 | 38306 ft | 396 kts | 233° |
| 2026-05-07 12:04 | -32.71627 | 148.75637 | 38309 ft | 396 kts | 233° |
| 2026-05-07 12:04 | -32.75441 | 148.70900 | 38310 ft | 397 kts | 233° |
| 2026-05-07 12:05 | -32.79254 | 148.66147 | 38325 ft | 398 kts | 231° |
| 2026-05-07 12:05 | -32.83059 | 148.61411 | 38327 ft | 399 kts | 231° |
| 2026-05-07 12:06 | -32.86911 | 148.56611 | 38318 ft | 397 kts | 231° |
| 2026-05-07 12:06 | -32.90695 | 148.51887 | 38319 ft | 397 kts | 232° |
| 2026-05-07 12:07 | -32.94501 | 148.47124 | 38319 ft | 397 kts | 231° |
| 2026-05-07 12:07 | -32.98315 | 148.42346 | 38319 ft | 398 kts | 231° |
| 2026-05-07 12:08 | -33.02128 | 148.37565 | 38317 ft | 398 kts | 231° |
| 2026-05-07 12:08 | -33.05939 | 148.32779 | 38319 ft | 398 kts | 231° |
| 2026-05-07 12:09 | -33.09753 | 148.27983 | 38322 ft | 398 kts | 231° |
| 2026-05-07 12:09 | -33.13669 | 148.23317 | 38321 ft | 398 kts | 226° |
| 2026-05-07 12:10 | -33.18042 | 148.19219 | 38317 ft | 400 kts | 223° |
| 2026-05-07 12:10 | -33.22441 | 148.15152 | 38317 ft | 399 kts | 223° |
| 2026-05-07 12:11 | -33.26836 | 148.11088 | 38319 ft | 400 kts | 223° |
| 2026-05-07 12:11 | -33.31222 | 148.07034 | 38320 ft | 396 kts | 223° |
| 2026-05-07 12:12 | -33.35575 | 148.03004 | 38321 ft | 397 kts | 223° |
| 2026-05-07 12:12 | -33.39935 | 147.98960 | 38316 ft | 397 kts | 223° |
| 2026-05-07 12:13 | -33.44295 | 147.94912 | 38316 ft | 396 kts | 223° |
| 2026-05-07 12:13 | -33.48652 | 147.90858 | 38323 ft | 398 kts | 223° |
| 2026-05-07 12:14 | -33.53049 | 147.86764 | 38317 ft | 400 kts | 223° |
| 2026-05-07 12:14 | -33.57438 | 147.82678 | 38314 ft | 399 kts | 223° |
| 2026-05-07 12:15 | -33.61826 | 147.78583 | 38319 ft | 400 kts | 223° |
| 2026-05-07 12:15 | -33.66185 | 147.74508 | 38315 ft | 401 kts | 223° |
| 2026-05-07 12:16 | -33.70602 | 147.70373 | 38331 ft | 403 kts | 223° |
| 2026-05-07 12:16 | -33.75013 | 147.66243 | 38319 ft | 401 kts | 223° |
| 2026-05-07 12:17 | -33.79421 | 147.62105 | 38318 ft | 403 kts | 223° |
| 2026-05-07 12:17 | -33.83838 | 147.57956 | 38319 ft | 403 kts | 223° |
| 2026-05-07 12:18 | -33.88249 | 147.53807 | 38317 ft | 403 kts | 223° |
| 2026-05-07 12:18 | -33.92663 | 147.49649 | 38318 ft | 403 kts | 223° |
| 2026-05-07 12:19 | -33.97073 | 147.45489 | 38323 ft | 403 kts | 223° |
| 2026-05-07 12:19 | -34.01488 | 147.41317 | 38315 ft | 404 kts | 223° |
| 2026-05-07 12:20 | -34.05905 | 147.37139 | 38307 ft | 403 kts | 223° |
| 2026-05-07 12:20 | -34.10318 | 147.32960 | 38317 ft | 403 kts | 223° |
| 2026-05-07 12:21 | -34.14734 | 147.28771 | 38315 ft | 404 kts | 223° |
| 2026-05-07 12:21 | -34.19154 | 147.24571 | 38315 ft | 405 kts | 222° |
| 2026-05-07 12:22 | -34.23578 | 147.20364 | 38316 ft | 405 kts | 222° |
| 2026-05-07 12:22 | -34.27258 | 147.16860 | 38316 ft | 405 kts | 222° |
| 2026-05-07 12:23 | -34.31691 | 147.12633 | 38323 ft | 406 kts | 222° |
| 2026-05-07 12:23 | -34.36124 | 147.08400 | 38318 ft | 406 kts | 222° |
| 2026-05-07 12:24 | -34.40563 | 147.04156 | 38322 ft | 407 kts | 222° |
| 2026-05-07 12:24 | -34.45001 | 146.99906 | 38325 ft | 407 kts | 222° |
| 2026-05-07 12:25 | -34.49442 | 146.95649 | 38322 ft | 407 kts | 222° |
| 2026-05-07 12:25 | -34.53880 | 146.91387 | 38311 ft | 405 kts | 222° |
| 2026-05-07 12:26 | -34.58295 | 146.87143 | 38309 ft | 405 kts | 222° |
| 2026-05-07 12:26 | -34.62716 | 146.82885 | 38311 ft | 405 kts | 222° |
| 2026-05-07 12:27 | -34.67128 | 146.78631 | 38338 ft | 405 kts | 222° |
| 2026-05-07 12:27 | -34.71530 | 146.74380 | 38311 ft | 403 kts | 222° |
| 2026-05-07 12:28 | -34.75911 | 146.70145 | 38295 ft | 402 kts | 222° |
| 2026-05-07 12:28 | -34.80256 | 146.65938 | 38290 ft | 401 kts | 222° |
| 2026-05-07 12:29 | -34.84641 | 146.61686 | 38310 ft | 401 kts | 222° |
| 2026-05-07 12:29 | -34.88993 | 146.57460 | 38299 ft | 400 kts | 222° |
| 2026-05-07 12:30 | -34.93313 | 146.53260 | 38294 ft | 400 kts | 222° |
| 2026-05-07 12:30 | -34.97653 | 146.49033 | 38294 ft | 399 kts | 222° |
| 2026-05-07 12:31 | -35.01998 | 146.44797 | 38304 ft | 400 kts | 222° |
| 2026-05-07 12:31 | -35.06345 | 146.40552 | 38304 ft | 400 kts | 222° |
| 2026-05-07 12:32 | -35.10688 | 146.36306 | 38302 ft | 400 kts | 222° |
| 2026-05-07 12:32 | -35.15032 | 146.32053 | 38298 ft | 400 kts | 222° |
| 2026-05-07 12:33 | -35.21549 | 146.25660 | 38309 ft | 401 kts | 222° |
| 2026-05-07 12:33 | -35.25893 | 146.21391 | 38311 ft | 401 kts | 222° |
| 2026-05-07 12:34 | -35.30239 | 146.17115 | 38313 ft | 401 kts | 222° |
| 2026-05-07 12:34 | -35.34577 | 146.12840 | 38300 ft | 399 kts | 222° |
| 2026-05-07 12:35 | -35.38863 | 146.08612 | 38302 ft | 398 kts | 222° |
| 2026-05-07 12:35 | -35.43178 | 146.04347 | 38265 ft | 398 kts | 222° |
| 2026-05-07 12:36 | -35.47506 | 146.00062 | 38300 ft | 401 kts | 222° |
| 2026-05-07 12:36 | -35.51842 | 145.95767 | 38299 ft | 400 kts | 222° |
| 2026-05-07 12:37 | -35.56197 | 145.91447 | 38298 ft | 400 kts | 222° |
| 2026-05-07 12:37 | -35.60496 | 145.87179 | 38300 ft | 400 kts | 222° |
| 2026-05-07 12:38 | -35.64815 | 145.82876 | 38325 ft | 400 kts | 223° |
| 2026-05-07 12:38 | -35.69115 | 145.78586 | 38299 ft | 397 kts | 223° |
| 2026-05-07 12:39 | -35.73424 | 145.74283 | 38300 ft | 400 kts | 222° |
| 2026-05-07 12:39 | -35.77738 | 145.69972 | 38295 ft | 399 kts | 222° |
| 2026-05-07 12:40 | -35.82045 | 145.65660 | 38299 ft | 397 kts | 222° |
| 2026-05-07 12:40 | -35.86316 | 145.61379 | 38286 ft | 395 kts | 222° |
| 2026-05-07 12:41 | -35.91039 | 145.58296 | 38294 ft | 409 kts | 199° |
| 2026-05-07 12:41 | -35.96711 | 145.57063 | 38193 ft | 415 kts | 195° |
| 2026-05-07 12:42 | -35.99531 | 145.56391 | 37948 ft | 410 kts | 198° |
| 2026-05-07 12:42 | -36.02291 | 145.55614 | 37674 ft | 405 kts | 199° |
| 2026-05-07 12:42 | -36.05018 | 145.54766 | 37404 ft | 404 kts | 200° |
| 2026-05-07 12:42 | -36.07736 | 145.53883 | 37137 ft | 404 kts | 200° |
| 2026-05-07 12:43 | -36.10453 | 145.52987 | 36877 ft | 404 kts | 200° |
| 2026-05-07 12:43 | -36.13165 | 145.52088 | 36583 ft | 403 kts | 201° |
| 2026-05-07 12:43 | -36.15880 | 145.51182 | 36325 ft | 405 kts | 200° |
| 2026-05-07 12:43 | -36.18610 | 145.50278 | 35855 ft | 408 kts | 200° |
| 2026-05-07 12:44 | -36.21361 | 145.49368 | 35149 ft | 410 kts | 200° |
| 2026-05-07 12:44 | -36.24130 | 145.48451 | 34330 ft | 413 kts | 200° |
| 2026-05-07 12:44 | -36.26911 | 145.47531 | 33394 ft | 415 kts | 200° |
| 2026-05-07 12:44 | -36.29701 | 145.46607 | 32560 ft | 415 kts | 200° |
| 2026-05-07 12:45 | -36.32490 | 145.45684 | 31744 ft | 414 kts | 201° |
| 2026-05-07 12:45 | -36.35266 | 145.44764 | 31138 ft | 410 kts | 201° |
| 2026-05-07 12:45 | -36.38006 | 145.43857 | 30540 ft | 405 kts | 201° |
| 2026-05-07 12:45 | -36.40713 | 145.42957 | 29903 ft | 400 kts | 201° |
| 2026-05-07 12:46 | -36.43384 | 145.42067 | 29328 ft | 394 kts | 201° |
| 2026-05-07 12:46 | -36.46007 | 145.41191 | 28746 ft | 388 kts | 201° |
| 2026-05-07 12:46 | -36.48591 | 145.40327 | 28184 ft | 382 kts | 201° |
| 2026-05-07 12:46 | -36.51139 | 145.39474 | 27619 ft | 377 kts | 200° |
| 2026-05-07 12:47 | -36.53653 | 145.38631 | 27090 ft | 372 kts | 200° |
| 2026-05-07 12:47 | -36.56143 | 145.37796 | 26510 ft | 368 kts | 200° |
| 2026-05-07 12:47 | -36.58604 | 145.36971 | 25969 ft | 364 kts | 200° |
| 2026-05-07 12:47 | -36.61033 | 145.36156 | 25431 ft | 360 kts | 200° |
| 2026-05-07 12:48 | -36.63438 | 145.35348 | 24888 ft | 356 kts | 199° |
| 2026-05-07 12:48 | -36.65823 | 145.34547 | 24328 ft | 354 kts | 199° |
| 2026-05-07 12:48 | -36.68190 | 145.33751 | 23748 ft | 352 kts | 199° |
| 2026-05-07 12:48 | -36.70535 | 145.32964 | 23217 ft | 346 kts | 199° |
| 2026-05-07 12:49 | -36.72844 | 145.32189 | 22695 ft | 341 kts | 199° |
| 2026-05-07 12:49 | -36.75126 | 145.31423 | 22167 ft | 337 kts | 199° |
| 2026-05-07 12:49 | -36.77375 | 145.30667 | 21637 ft | 333 kts | 198° |
| 2026-05-07 12:49 | -36.79597 | 145.29919 | 21121 ft | 329 kts | 198° |
| 2026-05-07 12:50 | -36.81796 | 145.29179 | 20601 ft | 326 kts | 198° |
| 2026-05-07 12:50 | -36.83974 | 145.28445 | 20090 ft | 323 kts | 198° |
| 2026-05-07 12:50 | -36.86108 | 145.27725 | 19587 ft | 320 kts | 198° |
| 2026-05-07 12:50 | -36.88281 | 145.26992 | 19071 ft | 318 kts | 198° |
| 2026-05-07 12:51 | -36.90385 | 145.26282 | 18528 ft | 318 kts | 198° |
| 2026-05-07 12:51 | -36.92512 | 145.25566 | 18021 ft | 314 kts | 198° |
| 2026-05-07 12:51 | -36.94611 | 145.24858 | 17513 ft | 311 kts | 198° |
| 2026-05-07 12:51 | -36.96687 | 145.24157 | 17014 ft | 308 kts | 198° |
| 2026-05-07 12:52 | -36.98744 | 145.23462 | 16517 ft | 305 kts | 198° |
| 2026-05-07 12:52 | -37.00785 | 145.22770 | 16014 ft | 303 kts | 198° |
| 2026-05-07 12:52 | -37.02812 | 145.22085 | 15534 ft | 301 kts | 198° |
| 2026-05-07 12:52 | -37.04830 | 145.21402 | 15036 ft | 299 kts | 198° |
| 2026-05-07 12:53 | -37.06834 | 145.20723 | 14552 ft | 298 kts | 198° |
| 2026-05-07 12:53 | -37.08833 | 145.20046 | 14017 ft | 298 kts | 198° |
| 2026-05-07 12:53 | -37.10825 | 145.19371 | 13545 ft | 294 kts | 198° |
| 2026-05-07 12:53 | -37.12783 | 145.18710 | 13070 ft | 290 kts | 198° |
| 2026-05-07 12:54 | -37.14722 | 145.18056 | 12590 ft | 287 kts | 198° |
| 2026-05-07 12:54 | -37.16639 | 145.17404 | 12127 ft | 284 kts | 198° |
| 2026-05-07 12:54 | -37.18541 | 145.16755 | 11664 ft | 283 kts | 198° |
| 2026-05-07 12:54 | -37.20436 | 145.16108 | 11193 ft | 282 kts | 198° |
| 2026-05-07 12:55 | -37.22324 | 145.15465 | 10722 ft | 281 kts | 198° |
| 2026-05-07 12:55 | -37.24192 | 145.14831 | 10486 ft | 272 kts | 198° |
| 2026-05-07 12:55 | -37.25973 | 145.14227 | 10371 ft | 259 kts | 198° |
| 2026-05-07 12:55 | -37.27681 | 145.13646 | 10122 ft | 252 kts | 198° |
| 2026-05-07 12:56 | -37.29354 | 145.13075 | 9850 ft | 245 kts | 198° |
| 2026-05-07 12:56 | -37.30989 | 145.12519 | 9544 ft | 244 kts | 198° |
| 2026-05-07 12:56 | -37.32622 | 145.11962 | 9171 ft | 243 kts | 198° |
| 2026-05-07 12:56 | -37.34221 | 145.11415 | 8821 ft | 240 kts | 198° |
| 2026-05-07 12:57 | -37.35823 | 145.10869 | 8455 ft | 237 kts | 198° |
| 2026-05-07 12:57 | -37.37400 | 145.10333 | 8110 ft | 232 kts | 198° |
| 2026-05-07 12:57 | -37.38948 | 145.09813 | 7752 ft | 230 kts | 198° |
| 2026-05-07 12:57 | -37.40489 | 145.09287 | 7398 ft | 228 kts | 198° |
| 2026-05-07 12:58 | -37.42012 | 145.08765 | 7055 ft | 226 kts | 198° |
| 2026-05-07 12:58 | -37.43520 | 145.08245 | 6704 ft | 225 kts | 199° |
| 2026-05-07 12:58 | -37.45024 | 145.07724 | 6350 ft | 224 kts | 199° |
| 2026-05-07 12:58 | -37.46520 | 145.07210 | 6002 ft | 221 kts | 198° |
| 2026-05-07 12:59 | -37.47999 | 145.06705 | 5652 ft | 220 kts | 199° |
| 2026-05-07 12:59 | -37.49473 | 145.06206 | 5330 ft | 219 kts | 200° |
| 2026-05-07 12:59 | -37.50946 | 145.05705 | 4977 ft | 218 kts | 200° |
| 2026-05-07 12:59 | -37.52410 | 145.05201 | 4624 ft | 218 kts | 200° |
| 2026-05-07 13:00 | -37.53870 | 145.04694 | 4279 ft | 217 kts | 200° |
| 2026-05-07 13:00 | -37.55326 | 145.04195 | 3943 ft | 217 kts | 200° |
| 2026-05-07 13:00 | -37.56792 | 145.03697 | 3602 ft | 219 kts | 199° |
| 2026-05-07 13:00 | -37.58283 | 145.03416 | 3454 ft | 214 kts | 191° |
| 2026-05-07 13:01 | -37.59735 | 145.03314 | 3354 ft | 203 kts | 191° |
| 2026-05-07 13:01 | -37.61114 | 145.03202 | 3283 ft | 194 kts | 192° |
| 2026-05-07 13:01 | -37.62385 | 145.03099 | 3242 ft | 175 kts | 193° |
| 2026-05-07 13:01 | -37.63547 | 145.03004 | 3041 ft | 160 kts | 194° |
| 2026-05-07 13:02 | -37.64636 | 145.02909 | 2764 ft | 160 kts | 194° |
| 2026-05-07 13:02 | -37.65725 | 145.02685 | 2673 ft | 151 kts | 208° |
| 2026-05-07 13:02 | -37.66552 | 145.01925 | 2602 ft | 147 kts | 235° |
| 2026-05-07 13:02 | -37.66956 | 145.00759 | 2538 ft | 147 kts | 255° |
| 2026-05-07 13:03 | -37.67047 | 144.99450 | 2466 ft | 152 kts | 264° |
| 2026-05-07 13:03 | -37.67000 | 144.98157 | 2383 ft | 137 kts | 267° |
| 2026-05-07 13:03 | -37.66929 | 144.97083 | 2311 ft | 110 kts | 266° |
| 2026-05-07 13:03 | -37.66882 | 144.96164 | 2201 ft | 106 kts | 266° |
| 2026-05-07 13:04 | -37.66830 | 144.95246 | 2078 ft | 104 kts | 268° |
| 2026-05-07 13:04 | -37.66778 | 144.94334 | 1943 ft | 105 kts | 268° |
| 2026-05-07 13:04 | -37.66724 | 144.93404 | 1799 ft | 107 kts | 269° |
| 2026-05-07 13:04 | -37.66670 | 144.92490 | 1671 ft | 104 kts | 269° |
| 2026-05-07 13:05 | -37.66617 | 144.91547 | 1499 ft | 111 kts | 269° |
| 2026-05-07 13:05 | -37.66559 | 144.90548 | 1357 ft | 118 kts | 272° |
| 2026-05-07 13:05 | -37.66498 | 144.89525 | 1181 ft | 115 kts | 272° |
| 2026-05-07 13:05 | -37.66478 | 144.88513 | 1071 ft | 116 kts | 266° |
| 2026-05-07 13:06 | -37.66398 | 144.87498 | 900 ft | 117 kts | 278° |
| 2026-05-07 13:06 | -37.66311 | 144.86491 | 722 ft | 113 kts | 271° |
| 2026-05-07 13:06 | -37.66264 | 144.85489 | 531 ft | 115 kts | 272° |
| 2026-05-07 13:06 | -37.66211 | 144.84526 | 408 ft | 104 kts | 273° |
| 2026-05-07 13:07 | -37.66168 | 144.83760 | 413 ft | 74 kts | 273° |
| 2026-05-07 13:07 | -37.66139 | 144.83282 | 408 ft | 33 kts | 276° |
| 2026-05-07 13:07 | -37.66152 | 144.82995 | 408 ft | 33 kts | 255° |
| 2026-05-07 13:07 | -37.66252 | 144.82734 | 396 ft | 33 kts | 231° |
| 2026-05-07 13:08 | -37.66441 | 144.82764 | 386 ft | 33 kts | 113° |
| 2026-05-07 13:08 | -37.66459 | 144.83052 | 392 ft | 33 kts | 94° |
| 2026-05-07 13:08 | -37.66477 | 144.83331 | 401 ft | 32 kts | 92° |
| 2026-05-07 13:08 | -37.66493 | 144.83611 | 404 ft | 33 kts | 95° |
| 2026-05-07 13:09 | -37.66524 | 144.83900 | 402 ft | 33 kts | 123° |
| 2026-05-07 13:09 | -37.66745 | 144.83976 | 394 ft | 36 kts | 174° |
| 2026-05-07 13:09 | -37.67002 | 144.84025 | 385 ft | 39 kts | 171° |
| 2026-05-07 13:09 | -37.67272 | 144.84076 | 377 ft | 41 kts | 172° |
| 2026-05-07 13:10 | -37.67481 | 144.84123 | 371 ft | 20 kts | 144° |
| 2026-05-07 13:10 | -37.67490 | 144.84284 | 374 ft | 20 kts | 81° |
| 2026-05-07 13:10 | -37.67468 | 144.84460 | 378 ft | 21 kts | 81° |
| 2026-05-07 13:10 | -37.67443 | 144.84650 | 381 ft | 20 kts | 80° |
| 2026-05-07 13:11 | -37.67455 | 144.84731 | 381 ft | 8 kts | 153° |
| 2026-05-07 13:11 | -37.67529 | 144.84744 | 379 ft | 6 kts | 169° |
| 2026-05-07 13:11 | -37.67530 | 144.84744 | 379 ft | 0 kts | 169° |